Allison, Texas
Current Conditions -  °F | °C
As of 8:15 AM on Friday 31 Oct 2014 (Local Time) from KHHF Reporting Station
Clear Clear  
Wind Chill: 37°   Ceiling: Unl
Heat Index: 42°   Visibility: NA
Dew Point: 36°   Wind: 8mph
Humidity: 80%   Direction: 30°NNE
Pressure: 30.45"   Gusts: NA
Location:  35.61°N, 100.1°W
Report Text: KHHF 311315Z AUTO 03007KT CLR 06/02 A3045 RMK AO2 T00550023 PWINO
Loading
Personal Weather Stations






























Interactive Weather Map
Tropical Storm Tracking
New forecast layout! Learn more

10-Day Weather Forecast

Advertisements
Track Severe Weather on mobile